Eskridge, Kansas
Current Conditions -  °F | °C
As of 10:00 AM on Thursday 23 Oct 2014 (Local Time) from KFOE Reporting Station
Overcast Overcast  
Wind Chill: 62°   Ceiling: 2300
Heat Index: 62°   Visibility: 8mi
Dew Point: 60°   Wind: 9mph
Humidity: 93%   Direction: 190°S
Pressure: 30.09"   Gusts: NA
Location:  38.86°N, 96.11°W
Report Text: KFOE 231500Z 19008KT 8SM FEW005 BKN023 OVC035 17/16 A3009 RMK AO2 T01670156
Loading
Personal Weather Stations






























Interactive Weather Map
Tropical Storm Tracking
New forecast layout! Learn more

10-Day Weather Forecast

Advertisements
Track Severe Weather on mobile